Time;durP1;ratioP1;P1;durP2;ratioP2;P2;SDS_P1;SDS_P2;PMS_P1;PMS_P2;Temp;Humidity;BMP_temperature;BMP_pressure;BME280_temperature;BME280_humidity;BME280_pressure;Samples;Min_cycle;Max_cycle;Signal;HPM_P1;HPM_P2
2023/03/26 00:00:57;;;;;;;;;;;19.50;80.90;;;;;;5138737;27;19915;-55
2023/03/26 00:03:22;;;;;;;;;;;19.40;81.10;;;;;;5138430;27;19907;-51
2023/03/26 00:05:48;;;;;;;;;;;19.40;81.30;;;;;;5138496;27;20377;-51
2023/03/26 00:08:14;;;;;;;;;;;19.30;81.40;;;;;;5138466;27;19998;-50
2023/03/26 00:10:41;;;;;;;;;;;19.30;81.60;;;;;;5118363;27;20016;-55
2023/03/26 00:13:07;;;;;;;;;;;19.20;81.60;;;;;;5117794;28;19998;-54
2023/03/26 00:15:34;;;;;;;;;;;19.20;81.80;;;;;;5117610;28;19941;-55
2023/03/26 00:17:59;;;;;;;;;;;19.10;81.90;;;;;;5124159;27;19946;-54
2023/03/26 00:20:28;;;;;;;;;;;19.10;81.90;;;;;;5138540;27;19907;-52
2023/03/26 00:22:54;;;;;;;;;;;19.10;81.90;;;;;;5138387;27;19908;-54
2023/03/26 00:25:20;;;;;;;;;;;19.20;81.90;;;;;;5137039;27;19918;-55
2023/03/26 00:27:45;;;;;;;;;;;19.30;81.60;;;;;;5138261;27;19954;-51
2023/03/26 00:30:11;;;;;;;;;;;19.50;81.20;;;;;;5138052;27;20370;-53
2023/03/26 00:32:37;;;;;;;;;;;19.70;80.60;;;;;;5137999;27;20304;-55
2023/03/26 00:35:03;;;;;;;;;;;19.90;80.20;;;;;;5138194;27;19994;-54
2023/03/26 00:37:29;;;;;;;;;;;19.90;80.00;;;;;;5138017;27;20393;-54
2023/03/26 00:39:58;;;;;;;;;;;19.90;79.90;;;;;;5137806;27;20011;-53
2023/03/26 00:42:24;;;;;;;;;;;19.90;80.00;;;;;;5137283;27;20414;-54
2023/03/26 00:44:53;;;;;;;;;;;19.80;80.10;;;;;;5138041;27;19919;-52
2023/03/26 00:47:19;;;;;;;;;;;19.80;80.20;;;;;;5137897;27;19919;-51
2023/03/26 00:49:47;;;;;;;;;;;19.70;80.30;;;;;;5137991;27;19907;-53
2023/03/26 00:52:13;;;;;;;;;;;19.70;80.50;;;;;;5129613;27;20021;-53
2023/03/26 00:54:39;;;;;;;;;;;19.60;80.20;;;;;;5136730;27;19919;-53
2023/03/26 00:57:05;;;;;;;;;;;19.60;80.50;;;;;;5136575;27;19912;-53
2023/03/26 00:59:34;;;;;;;;;;;19.60;80.90;;;;;;5130887;27;19912;-51
2023/03/26 01:02:00;;;;;;;;;;;19.60;81.00;;;;;;5128199;27;20381;-52
2023/03/26 01:04:29;;;;;;;;;;;19.50;80.80;;;;;;5137205;27;19960;-52
2023/03/26 01:06:55;;;;;;;;;;;19.50;81.00;;;;;;5137552;27;19908;-50
2023/03/26 01:09:23;;;;;;;;;;;19.40;81.30;;;;;;5137541;27;20350;-49
2023/03/26 01:11:49;;;;;;;;;;;19.30;81.40;;;;;;5137570;27;19998;-50
2023/03/26 01:14:16;;;;;;;;;;;19.30;81.60;;;;;;5137536;27;19950;-51
2023/03/26 01:16:48;;;;;;;;;;;19.30;81.80;;;;;;5136559;27;19915;-48
2023/03/26 01:19:36;;;;;;;;;;;19.20;81.90;;;;;;5137784;27;19907;-51
2023/03/26 01:22:04;;;;;;;;;;;19.20;82.10;;;;;;5127261;27;19915;-52
2023/03/26 01:24:29;;;;;;;;;;;19.20;82.10;;;;;;5135528;27;19915;-50
2023/03/26 01:27:16;;;;;;;;;;;19.20;82.30;;;;;;5137040;27;19915;-50
2023/03/26 01:29:51;;;;;;;;;;;19.10;82.40;;;;;;5137585;27;20354;-52
2023/03/26 01:32:16;;;;;;;;;;;19.10;82.50;;;;;;5137119;27;19911;-48
2023/03/26 01:34:57;;;;;;;;;;;19.10;82.60;;;;;;5135991;27;19951;-54
2023/03/26 01:37:23;;;;;;;;;;;19.20;82.50;;;;;;5136792;27;19918;-50
2023/03/26 01:39:52;;;;;;;;;;;19.40;82.00;;;;;;5137076;27;20014;-51
2023/03/26 01:42:26;;;;;;;;;;;19.80;81.30;;;;;;5136587;27;19926;-52
2023/03/26 01:45:00;;;;;;;;;;;20.10;80.20;;;;;;5136440;27;19911;-52
2023/03/26 01:47:26;;;;;;;;;;;20.40;79.70;;;;;;5136831;27;20196;-50
2023/03/26 01:49:51;;;;;;;;;;;20.50;79.40;;;;;;5136525;27;20434;-53
2023/03/26 01:52:20;;;;;;;;;;;20.40;79.30;;;;;;5118153;27;20024;-52
2023/03/26 01:54:45;;;;;;;;;;;20.40;79.50;;;;;;5134657;27;19915;-54
2023/03/26 01:57:11;;;;;;;;;;;20.30;79.60;;;;;;5118230;27;19918;-54
2023/03/26 01:59:36;;;;;;;;;;;20.20;79.90;;;;;;5136620;27;19914;-50
2023/03/26 02:02:08;;;;;;;;;;;20.10;80.10;;;;;;5116376;27;20048;-49
2023/03/26 02:04:36;;;;;;;;;;;20.00;80.40;;;;;;5136625;27;20405;-49
2023/03/26 02:07:06;;;;;;;;;;;19.90;80.70;;;;;;5135855;27;19911;-50
2023/03/26 02:09:35;;;;;;;;;;;19.90;80.90;;;;;;5135993;27;20281;-53
2023/03/26 02:12:02;;;;;;;;;;;19.70;81.00;;;;;;5135516;27;19911;-50
2023/03/26 02:14:28;;;;;;;;;;;19.60;81.20;;;;;;5136049;27;20262;-53
2023/03/26 02:16:55;;;;;;;;;;;19.60;81.60;;;;;;5136582;27;19915;-52
2023/03/26 02:19:23;;;;;;;;;;;19.50;81.60;;;;;;5136165;27;20357;-54
2023/03/26 02:21:50;;;;;;;;;;;19.50;81.90;;;;;;5135231;27;19952;-51
2023/03/26 02:24:16;;;;;;;;;;;19.40;82.20;;;;;;5135751;27;19958;-51
2023/03/26 02:26:41;;;;;;;;;;;19.40;82.30;;;;;;5135754;27;19907;-50
2023/03/26 02:29:07;;;;;;;;;;;19.40;82.30;;;;;;5135669;27;19952;-50
2023/03/26 02:31:34;;;;;;;;;;;19.30;82.30;;;;;;5136150;27;19933;-48
2023/03/26 02:34:00;;;;;;;;;;;19.40;82.30;;;;;;5134946;27;19918;-53
2023/03/26 02:36:28;;;;;;;;;;;19.50;82.00;;;;;;5135558;27;20425;-49
2023/03/26 02:38:54;;;;;;;;;;;19.70;81.60;;;;;;5135859;27;20002;-47
2023/03/26 02:41:20;;;;;;;;;;;19.90;81.10;;;;;;5135655;27;19930;-52
2023/03/26 02:43:45;;;;;;;;;;;20.10;80.80;;;;;;5135183;27;19916;-50
2023/03/26 02:46:11;;;;;;;;;;;20.10;80.60;;;;;;5135308;27;20380;-51
2023/03/26 02:48:36;;;;;;;;;;;20.10;80.60;;;;;;5135346;27;19914;-54
2023/03/26 02:51:02;;;;;;;;;;;20.00;80.70;;;;;;5135535;27;19915;-53
2023/03/26 02:53:30;;;;;;;;;;;20.00;80.70;;;;;;5133929;27;19912;-50
2023/03/26 02:55:56;;;;;;;;;;;19.90;80.90;;;;;;5135143;27;20280;-51
2023/03/26 02:58:24;;;;;;;;;;;19.90;81.20;;;;;;5135460;27;19912;-53
2023/03/26 03:00:53;;;;;;;;;;;19.80;81.40;;;;;;5135485;27;19911;-49
2023/03/26 03:03:23;;;;;;;;;;;19.70;81.50;;;;;;5133980;27;20517;-51
2023/03/26 03:05:54;;;;;;;;;;;19.70;81.70;;;;;;5134717;27;19915;-52
2023/03/26 03:08:20;;;;;;;;;;;19.60;81.90;;;;;;5135676;27;19930;-52
2023/03/26 03:10:56;;;;;;;;;;;19.50;82.00;;;;;;5135317;27;19912;-53
2023/03/26 03:13:22;;;;;;;;;;;19.40;82.20;;;;;;5134395;27;19919;-53
2023/03/26 03:15:47;;;;;;;;;;;19.40;82.40;;;;;;5130883;27;20427;-53
2023/03/26 03:18:13;;;;;;;;;;;19.40;82.50;;;;;;5133101;27;20422;-49
2023/03/26 03:20:38;;;;;;;;;;;19.30;82.60;;;;;;5134967;27;20372;-53
2023/03/26 03:23:04;;;;;;;;;;;19.30;82.70;;;;;;5135185;28;19952;-49
2023/03/26 03:25:29;;;;;;;;;;;19.30;82.90;;;;;;5134087;28;19953;-50
2023/03/26 03:27:55;;;;;;;;;;;19.30;82.90;;;;;;5135262;28;20294;-51
2023/03/26 03:30:20;;;;;;;;;;;19.30;82.80;;;;;;5135076;28;19907;-49
2023/03/26 03:32:46;;;;;;;;;;;19.40;82.60;;;;;;5135051;28;19919;-54
2023/03/26 03:35:11;;;;;;;;;;;19.60;82.40;;;;;;5133677;28;19960;-53
2023/03/26 03:37:36;;;;;;;;;;;19.80;81.90;;;;;;5135061;28;19950;-48
2023/03/26 03:40:06;;;;;;;;;;;20.00;81.40;;;;;;5135044;28;19915;-50
2023/03/26 03:42:32;;;;;;;;;;;20.10;81.20;;;;;;5134667;28;19919;-52
2023/03/26 03:44:57;;;;;;;;;;;20.10;81.10;;;;;;5134181;28;20358;-49
2023/03/26 03:47:23;;;;;;;;;;;20.00;81.00;;;;;;5133725;28;19920;-53
2023/03/26 03:49:49;;;;;;;;;;;20.00;81.20;;;;;;5135261;28;20430;-52
2023/03/26 03:52:15;;;;;;;;;;;20.00;81.30;;;;;;5134859;28;19907;-50
2023/03/26 03:54:40;;;;;;;;;;;19.90;81.50;;;;;;5133854;28;19962;-50
2023/03/26 03:57:06;;;;;;;;;;;19.80;81.50;;;;;;5134581;28;19919;-52
2023/03/26 03:59:31;;;;;;;;;;;19.80;81.70;;;;;;5133829;28;19918;-53
2023/03/26 04:01:57;;;;;;;;;;;19.70;81.90;;;;;;5134888;28;19961;-54
2023/03/26 04:04:23;;;;;;;;;;;19.60;82.00;;;;;;5135120;28;19908;-52
2023/03/26 04:06:49;;;;;;;;;;;19.60;82.10;;;;;;5133387;28;19919;-49
2023/03/26 04:09:15;;;;;;;;;;;19.60;82.40;;;;;;5134774;28;20337;-52
2023/03/26 04:11:40;;;;;;;;;;;19.40;82.50;;;;;;5134699;28;20329;-48
2023/03/26 04:14:06;;;;;;;;;;;19.40;82.70;;;;;;5134578;28;19907;-52
2023/03/26 04:16:31;;;;;;;;;;;19.40;82.90;;;;;;5133823;28;19998;-53
2023/03/26 04:18:57;;;;;;;;;;;19.30;83.00;;;;;;5134674;28;20265;-52
2023/03/26 04:21:23;;;;;;;;;;;19.30;83.10;;;;;;5134666;28;20338;-49
2023/03/26 04:23:49;;;;;;;;;;;19.30;83.10;;;;;;5134306;28;19923;-50
2023/03/26 04:26:17;;;;;;;;;;;19.30;83.10;;;;;;5133574;28;19912;-51
2023/03/26 04:28:45;;;;;;;;;;;19.40;83.20;;;;;;5135042;27;19918;-51
2023/03/26 04:31:15;;;;;;;;;;;19.40;83.00;;;;;;5138289;27;20011;-51
2023/03/26 04:33:45;;;;;;;;;;;19.70;82.60;;;;;;5138327;27;19907;-52
2023/03/26 04:36:11;;;;;;;;;;;19.80;82.10;;;;;;5136976;27;19922;-50
2023/03/26 04:38:40;;;;;;;;;;;20.00;82.40;;;;;;5137936;27;20010;-54
2023/03/26 04:41:06;;;;;;;;;;;20.00;81.60;;;;;;5137918;27;19920;-51
2023/03/26 04:43:34;;;;;;;;;;;20.00;81.60;;;;;;5137822;27;19915;-49
2023/03/26 04:46:02;;;;;;;;;;;20.00;81.60;;;;;;5137975;27;19912;-52
2023/03/26 04:48:29;;;;;;;;;;;19.90;81.70;;;;;;5135131;27;21471;-52
2023/03/26 04:50:55;;;;;;;;;;;19.80;81.70;;;;;;5137972;27;19943;-48
2023/03/26 04:53:21;;;;;;;;;;;19.80;82.10;;;;;;5137795;27;19914;-53
2023/03/26 04:56:01;;;;;;;;;;;19.70;82.30;;;;;;5137542;27;19911;-52
2023/03/26 04:58:29;;;;;;;;;;;19.70;82.50;;;;;;5136684;27;20422;-51
2023/03/26 05:00:54;;;;;;;;;;;19.60;82.60;;;;;;5137434;27;20336;-51
2023/03/26 05:03:20;;;;;;;;;;;19.60;82.70;;;;;;5137416;27;19947;-49
2023/03/26 05:05:45;;;;;;;;;;;19.50;82.80;;;;;;5137723;27;20018;-53
2023/03/26 05:08:11;;;;;;;;;;;19.50;83.10;;;;;;5136504;27;19998;-48
2023/03/26 05:10:36;;;;;;;;;;;19.40;83.10;;;;;;5137264;27;19919;-52
2023/03/26 05:13:02;;;;;;;;;;;19.40;83.30;;;;;;5137283;27;19956;-53
2023/03/26 05:15:27;;;;;;;;;;;19.30;83.40;;;;;;5137455;27;19912;-48
2023/03/26 05:17:54;;;;;;;;;;;19.30;83.40;;;;;;5136239;27;20366;-50
2023/03/26 05:20:26;;;;;;;;;;;19.30;83.50;;;;;;5137346;27;19911;-52
2023/03/26 05:22:52;;;;;;;;;;;19.30;83.50;;;;;;5137351;27;20036;-53
2023/03/26 05:25:17;;;;;;;;;;;19.40;83.60;;;;;;5137299;27;19952;-50
2023/03/26 05:27:43;;;;;;;;;;;19.50;83.40;;;;;;5136095;27;20342;-52
2023/03/26 05:30:12;;;;;;;;;;;19.60;83.10;;;;;;5137128;27;19912;-52
2023/03/26 05:32:37;;;;;;;;;;;19.80;82.70;;;;;;5137187;27;20345;-52
2023/03/26 05:35:03;;;;;;;;;;;20.00;82.20;;;;;;5136826;27;19943;-53
2023/03/26 05:37:29;;;;;;;;;;;20.00;81.90;;;;;;5137099;27;19911;-52
2023/03/26 05:39:55;;;;;;;;;;;20.00;81.80;;;;;;5135642;27;19915;-49
2023/03/26 05:42:21;;;;;;;;;;;20.00;81.90;;;;;;5136451;27;19972;-53
2023/03/26 05:44:46;;;;;;;;;;;20.00;82.00;;;;;;5136780;27;19964;-51
2023/03/26 05:47:11;;;;;;;;;;;19.90;82.10;;;;;;5135535;27;19943;-51
2023/03/26 05:49:37;;;;;;;;;;;19.90;82.30;;;;;;5137113;27;19911;-50
2023/03/26 05:52:02;;;;;;;;;;;19.80;82.40;;;;;;5118356;27;19908;-51
2023/03/26 05:54:28;;;;;;;;;;;19.80;82.60;;;;;;5136310;27;20362;-53
2023/03/26 05:56:55;;;;;;;;;;;19.70;82.70;;;;;;5135810;27;19911;-48
2023/03/26 05:59:20;;;;;;;;;;;19.60;82.80;;;;;;5136222;27;20118;-48
2023/03/26 06:01:46;;;;;;;;;;;19.60;83.00;;;;;;5136502;27;19916;-52
2023/03/26 06:04:12;;;;;;;;;;;19.60;83.10;;;;;;5136141;27;19908;-51
2023/03/26 06:06:38;;;;;;;;;;;19.50;83.30;;;;;;5135886;27;19907;-54
2023/03/26 06:09:03;;;;;;;;;;;19.50;83.50;;;;;;5136036;27;20342;-51
2023/03/26 06:11:30;;;;;;;;;;;19.40;83.60;;;;;;5136068;27;19911;-51
2023/03/26 06:13:56;;;;;;;;;;;19.30;83.60;;;;;;5135993;27;20244;-53
2023/03/26 06:16:21;;;;;;;;;;;19.30;83.70;;;;;;5136207;27;19911;-52
2023/03/26 06:18:49;;;;;;;;;;;19.30;83.90;;;;;;5134133;27;20297;-51
2023/03/26 06:21:14;;;;;;;;;;;19.30;83.90;;;;;;5135788;27;20374;-53
2023/03/26 06:23:39;;;;;;;;;;;19.30;83.90;;;;;;5135987;27;19914;-52
2023/03/26 06:26:05;;;;;;;;;;;19.40;83.70;;;;;;5135926;27;19912;-51
2023/03/26 06:28:30;;;;;;;;;;;19.50;83.50;;;;;;5116638;27;19907;-50
2023/03/26 06:30:58;;;;;;;;;;;19.70;83.00;;;;;;5135965;27;19937;-50
2023/03/26 06:33:23;;;;;;;;;;;19.90;82.50;;;;;;5135913;27;19908;-49
2023/03/26 06:35:49;;;;;;;;;;;20.00;82.20;;;;;;5135463;27;19915;-52
2023/03/26 06:38:14;;;;;;;;;;;20.10;82.00;;;;;;5135014;27;19911;-51
2023/03/26 06:40:40;;;;;;;;;;;20.00;82.00;;;;;;5135321;27;19948;-48
2023/03/26 06:43:05;;;;;;;;;;;20.00;82.00;;;;;;5135805;27;19917;-50
2023/03/26 06:45:31;;;;;;;;;;;20.00;82.10;;;;;;5135702;27;20402;-47
2023/03/26 06:47:57;;;;;;;;;;;20.00;82.20;;;;;;5134134;27;19942;-54
2023/03/26 06:50:22;;;;;;;;;;;19.90;82.10;;;;;;5135614;27;19934;-50
2023/03/26 06:52:49;;;;;;;;;;;19.90;82.40;;;;;;5135319;27;20289;-54
2023/03/26 06:55:15;;;;;;;;;;;19.80;82.50;;;;;;5135494;27;19945;-54
2023/03/26 06:57:44;;;;;;;;;;;19.70;82.60;;;;;;5134305;27;20376;-50
2023/03/26 07:00:09;;;;;;;;;;;19.70;82.80;;;;;;5133449;27;19915;-53
2023/03/26 07:02:35;;;;;;;;;;;19.60;82.90;;;;;;5142001;27;19914;-53
2023/03/26 07:05:00;;;;;;;;;;;19.60;83.10;;;;;;5147869;27;19911;-50
2023/03/26 07:07:26;;;;;;;;;;;19.60;83.20;;;;;;5134971;27;19914;-50
2023/03/26 07:09:51;;;;;;;;;;;19.50;83.40;;;;;;5134649;27;19907;-52
2023/03/26 07:12:17;;;;;;;;;;;19.50;83.60;;;;;;5134772;27;20031;-50
2023/03/26 07:14:42;;;;;;;;;;;19.40;83.70;;;;;;5135132;27;19911;-52
2023/03/26 07:17:08;;;;;;;;;;;19.40;83.80;;;;;;5134864;27;20347;-51
2023/03/26 07:19:33;;;;;;;;;;;19.40;83.90;;;;;;5132373;27;19915;-49
2023/03/26 07:21:59;;;;;;;;;;;19.40;83.90;;;;;;5135173;27;19990;-50
2023/03/26 07:24:25;;;;;;;;;;;19.40;83.90;;;;;;5134107;27;19959;-51
2023/03/26 07:27:00;;;;;;;;;;;19.50;83.80;;;;;;5135024;27;19911;-52
2023/03/26 07:29:34;;;;;;;;;;;19.60;83.50;;;;;;5134358;27;19917;-54
2023/03/26 07:32:00;;;;;;;;;;;19.80;83.00;;;;;;5134886;28;20014;-52
2023/03/26 07:34:28;;;;;;;;;;;20.00;82.50;;;;;;5133686;27;19947;-48
2023/03/26 07:37:02;;;;;;;;;;;20.20;82.10;;;;;;5132180;27;19915;-51
2023/03/26 07:39:30;;;;;;;;;;;20.30;81.80;;;;;;5116590;27;20273;-52
2023/03/26 07:42:04;;;;;;;;;;;20.30;81.70;;;;;;5121839;28;19946;-52
2023/03/26 07:44:35;;;;;;;;;;;20.20;74.60;;;;;;5132814;28;20226;-50
2023/03/26 07:47:04;;;;;;;;;;;19.90;74.80;;;;;;5133148;27;19912;-52
2023/03/26 07:49:30;;;;;;;;;;;19.80;80.30;;;;;;5135016;28;19911;-51
2023/03/26 07:51:55;;;;;;;;;;;19.80;81.10;;;;;;5134992;28;19961;-50
2023/03/26 07:54:21;;;;;;;;;;;19.70;81.30;;;;;;5133172;28;19911;-50
2023/03/26 07:56:54;;;;;;;;;;;19.70;81.50;;;;;;5132607;28;19912;-52
2023/03/26 07:59:20;;;;;;;;;;;19.60;81.60;;;;;;5130679;28;19918;-50
2023/03/26 08:02:02;;;;;;;;;;;19.60;81.80;;;;;;5134384;28;19919;-51
2023/03/26 08:04:40;;;;;;;;;;;19.50;82.10;;;;;;5128656;27;19940;-50
2023/03/26 08:07:09;;;;;;;;;;;19.50;82.20;;;;;;5150427;27;20377;-52
2023/03/26 08:09:45;;;;;;;;;;;19.50;82.50;;;;;;5146084;27;19922;-52
2023/03/26 08:12:30;;;;;;;;;;;19.50;82.60;;;;;;5132610;27;19919;-53
2023/03/26 08:15:04;;;;;;;;;;;19.50;82.70;;;;;;5133594;27;19919;-51
2023/03/26 08:17:34;;;;;;;;;;;19.50;82.70;;;;;;5142530;27;19948;-53
2023/03/26 08:20:06;;;;;;;;;;;19.60;82.70;;;;;;5148033;27;19911;-50
2023/03/26 08:22:39;;;;;;;;;;;19.70;82.70;;;;;;5119958;27;19908;-51
2023/03/26 08:25:22;;;;;;;;;;;19.80;82.40;;;;;;5137835;27;19968;-46
2023/03/26 08:28:03;;;;;;;;;;;19.80;82.10;;;;;;5140039;27;19911;-51
2023/03/26 08:30:29;;;;;;;;;;;19.90;82.10;;;;;;5136543;27;19957;-49
2023/03/26 08:32:57;;;;;;;;;;;19.90;81.80;;;;;;5138208;27;19908;-49
2023/03/26 08:35:22;;;;;;;;;;;19.90;81.90;;;;;;5137663;27;19919;-52
2023/03/26 08:37:48;;;;;;;;;;;19.90;82.00;;;;;;5132897;27;19919;-50
2023/03/26 08:40:17;;;;;;;;;;;19.80;82.10;;;;;;5150320;27;20328;-52
2023/03/26 08:42:57;;;;;;;;;;;19.80;82.30;;;;;;5158539;27;19919;-52
2023/03/26 08:45:50;;;;;;;;;;;19.70;82.50;;;;;;5117239;28;19907;-51
2023/03/26 08:48:18;;;;;;;;;;;19.70;82.70;;;;;;5137088;27;20369;-51
2023/03/26 08:51:11;;;;;;;;;;;19.60;82.90;;;;;;5136989;27;19911;-51
2023/03/26 08:53:49;;;;;;;;;;;19.60;83.10;;;;;;5137771;27;19915;-51
2023/03/26 08:56:23;;;;;;;;;;;19.50;83.30;;;;;;5137646;27;20010;-51
2023/03/26 08:58:57;;;;;;;;;;;19.50;83.60;;;;;;5137927;27;19919;-52
2023/03/26 09:01:37;;;;;;;;;;;19.40;84.20;;;;;;5135914;27;19911;-53
2023/03/26 09:04:23;;;;;;;;;;;19.40;83.80;;;;;;5119449;27;19948;-49
2023/03/26 09:07:00;;;;;;;;;;;19.40;83.90;;;;;;5118346;27;20350;-51
2023/03/26 09:09:38;;;;;;;;;;;19.40;83.80;;;;;;5137453;27;20274;-52
2023/03/26 09:12:07;;;;;;;;;;;19.50;83.60;;;;;;5137560;27;19915;-52
2023/03/26 09:14:35;;;;;;;;;;;19.60;83.40;;;;;;5137373;27;19911;-51
2023/03/26 09:17:21;;;;;;;;;;;19.70;83.00;;;;;;5136342;27;20387;-51
2023/03/26 09:19:50;;;;;;;;;;;19.90;82.70;;;;;;5136745;27;19912;-52
2023/03/26 09:22:39;;;;;;;;;;;20.00;82.30;;;;;;5137074;27;19914;-51
2023/03/26 09:25:23;;;;;;;;;;;20.00;82.20;;;;;;5137297;27;20006;-49
2023/03/26 09:27:48;;;;;;;;;;;20.00;82.20;;;;;;5136002;27;20312;-49
2023/03/26 09:30:37;;;;;;;;;;;20.00;82.40;;;;;;5137005;27;19967;-49
2023/03/26 09:33:04;;;;;;;;;;;19.90;82.50;;;;;;5137230;27;19907;-51
2023/03/26 09:35:29;;;;;;;;;;;19.80;82.70;;;;;;5137016;27;19937;-48
2023/03/26 09:37:55;;;;;;;;;;;19.80;82.80;;;;;;5135824;27;19915;-52
2023/03/26 09:40:28;;;;;;;;;;;19.70;83.00;;;;;;5118293;27;19908;-52
2023/03/26 09:43:01;;;;;;;;;;;19.70;83.20;;;;;;5136582;27;19927;-51
2023/03/26 09:45:33;;;;;;;;;;;19.60;83.20;;;;;;5136752;27;19998;-53
2023/03/26 09:48:08;;;;;;;;;;;19.50;83.30;;;;;;5135855;27;19971;-50
2023/03/26 09:50:51;;;;;;;;;;;19.50;83.50;;;;;;5136912;27;19908;-50
2023/03/26 09:53:19;;;;;;;;;;;19.50;83.60;;;;;;5136730;27;20370;-53
2023/03/26 09:55:57;;;;;;;;;;;19.40;83.80;;;;;;5136566;27;19918;-51
2023/03/26 09:58:50;;;;;;;;;;;19.40;83.90;;;;;;5135409;27;19922;-49
2023/03/26 10:01:39;;;;;;;;;;;19.30;83.90;;;;;;5136614;27;20351;-54
2023/03/26 10:04:04;;;;;;;;;;;19.40;84.00;;;;;;5128123;27;19907;-52
2023/03/26 10:06:35;;;;;;;;;;;19.40;83.90;;;;;;5136755;27;20267;-54
2023/03/26 10:09:19;;;;;;;;;;;19.50;83.80;;;;;;5135683;27;19915;-49
2023/03/26 10:11:45;;;;;;;;;;;19.60;83.30;;;;;;5136085;27;19914;-54
2023/03/26 10:14:25;;;;;;;;;;;19.90;82.90;;;;;;5136303;27;19907;-50
2023/03/26 10:16:57;;;;;;;;;;;20.00;82.40;;;;;;5136133;27;19915;-50
2023/03/26 10:19:29;;;;;;;;;;;20.20;82.00;;;;;;5135273;27;19912;-54
2023/03/26 10:22:13;;;;;;;;;;;20.20;81.90;;;;;;5135804;27;19908;-50
2023/03/26 10:24:47;;;;;;;;;;;20.30;81.90;;;;;;5135618;27;19908;-51
2023/03/26 10:27:35;;;;;;;;;;;20.20;82.00;;;;;;5135132;27;20274;-51
2023/03/26 10:30:24;;;;;;;;;;;20.10;82.10;;;;;;5134993;27;20067;-50
2023/03/26 10:32:49;;;;;;;;;;;20.00;82.30;;;;;;5124563;27;19963;-51
2023/03/26 10:35:20;;;;;;;;;;;19.90;82.50;;;;;;5131896;27;19915;-53
2023/03/26 10:38:04;;;;;;;;;;;19.80;82.80;;;;;;5133469;27;19919;-49
2023/03/26 10:40:45;;;;;;;;;;;19.80;83.20;;;;;;5135549;27;19964;-50
2023/03/26 10:43:29;;;;;;;;;;;19.70;83.40;;;;;;5131942;27;19912;-50
2023/03/26 10:45:55;;;;;;;;;;;19.70;83.50;;;;;;5132686;27;19915;-48
2023/03/26 10:48:34;;;;;;;;;;;19.60;83.60;;;;;;5132647;27;19960;-51
2023/03/26 10:51:18;;;;;;;;;;;19.60;83.70;;;;;;5134772;27;20342;-52
2023/03/26 10:53:53;;;;;;;;;;;19.60;83.80;;;;;;5126615;27;19912;-50
2023/03/26 10:56:31;;;;;;;;;;;19.60;83.80;;;;;;5133358;27;19916;-50
2023/03/26 10:58:59;;;;;;;;;;;19.60;83.80;;;;;;5134006;27;20435;-47
2023/03/26 11:01:44;;;;;;;;;;;19.60;83.60;;;;;;5135286;27;19949;-51
2023/03/26 11:04:27;;;;;;;;;;;19.80;83.40;;;;;;5133134;27;19923;-50
2023/03/26 11:07:02;;;;;;;;;;;19.90;82.90;;;;;;5132217;27;19915;-48
2023/03/26 11:09:33;;;;;;;;;;;20.00;82.50;;;;;;5135307;27;19911;-51
2023/03/26 11:12:20;;;;;;;;;;;20.10;82.40;;;;;;5133501;27;19933;-52
2023/03/26 11:14:52;;;;;;;;;;;20.10;82.80;;;;;;5123081;27;19964;-49
2023/03/26 11:17:17;;;;;;;;;;;20.10;82.30;;;;;;5134875;27;20303;-52
2023/03/26 11:19:53;;;;;;;;;;;20.10;82.40;;;;;;5131679;27;19911;-51
2023/03/26 11:22:26;;;;;;;;;;;20.00;82.60;;;;;;5116278;27;19912;-54
2023/03/26 11:25:02;;;;;;;;;;;19.90;82.80;;;;;;5133991;27;19918;-54
2023/03/26 11:27:30;;;;;;;;;;;19.90;82.90;;;;;;5133675;27;19998;-51
2023/03/26 11:30:06;;;;;;;;;;;19.80;83.00;;;;;;5135097;28;19999;-53
2023/03/26 11:32:43;;;;;;;;;;;19.70;83.10;;;;;;5133834;28;20389;-49
2023/03/26 11:35:29;;;;;;;;;;;19.70;83.30;;;;;;5130173;28;19960;-55
2023/03/26 11:37:56;;;;;;;;;;;19.70;83.60;;;;;;5131114;27;19916;-53
2023/03/26 11:40:28;;;;;;;;;;;19.60;83.60;;;;;;5142966;27;19907;-54
2023/03/26 11:43:01;;;;;;;;;;;19.60;83.80;;;;;;5158450;27;19907;-48
2023/03/26 11:45:29;;;;;;;;;;;19.60;83.80;;;;;;5137619;27;19935;-53
2023/03/26 11:48:16;;;;;;;;;;;19.70;83.70;;;;;;5139102;27;20349;-53
2023/03/26 11:50:43;;;;;;;;;;;19.70;83.50;;;;;;5097101;27;19908;-54
2023/03/26 11:53:11;;;;;;;;;;;19.80;83.30;;;;;;5139067;27;19911;-50
2023/03/26 11:55:39;;;;;;;;;;;20.00;82.80;;;;;;5137800;27;19934;-50
2023/03/26 11:58:09;;;;;;;;;;;20.10;82.50;;;;;;5138789;27;20041;-50
2023/03/26 12:00:34;;;;;;;;;;;20.20;82.70;;;;;;5136832;27;19918;-53
2023/03/26 12:03:00;;;;;;;;;;;20.30;82.20;;;;;;5138735;27;19908;-54
2023/03/26 12:05:30;;;;;;;;;;;20.20;82.10;;;;;;5137528;27;19911;-54
2023/03/26 12:08:00;;;;;;;;;;;20.20;82.30;;;;;;5138804;27;19914;-52
2023/03/26 12:10:51;;;;;;;;;;;20.10;82.30;;;;;;5136615;27;20012;-55
2023/03/26 12:13:25;;;;;;;;;;;20.00;82.60;;;;;;5134567;27;20002;-55
2023/03/26 12:15:56;;;;;;;;;;;20.00;82.90;;;;;;5136327;27;19922;-51
2023/03/26 12:18:25;;;;;;;;;;;19.90;82.90;;;;;;5137295;27;19915;-54
2023/03/26 12:21:05;;;;;;;;;;;19.90;83.20;;;;;;5136977;27;19911;-54
2023/03/26 12:23:57;;;;;;;;;;;19.80;83.30;;;;;;5133891;27;19911;-57
2023/03/26 12:26:43;;;;;;;;;;;19.80;83.30;;;;;;5123225;27;20027;-56
2023/03/26 12:29:10;;;;;;;;;;;19.80;83.50;;;;;;5138525;27;19919;-54
2023/03/26 12:31:51;;;;;;;;;;;19.80;83.80;;;;;;5134105;27;20003;-53
2023/03/26 12:34:18;;;;;;;;;;;19.70;83.80;;;;;;5136330;27;20376;-53
2023/03/26 12:36:52;;;;;;;;;;;19.70;83.80;;;;;;5138382;27;20361;-53
2023/03/26 12:39:37;;;;;;;;;;;19.70;83.70;;;;;;5137184;27;19908;-56
2023/03/26 12:42:06;;;;;;;;;;;19.80;83.50;;;;;;5136676;27;19935;-55
2023/03/26 12:44:36;;;;;;;;;;;20.00;83.00;;;;;;5136330;27;19911;-52
2023/03/26 12:47:10;;;;;;;;;;;20.10;82.50;;;;;;5137384;27;20265;-55
2023/03/26 12:49:36;;;;;;;;;;;20.20;82.10;;;;;;5137895;27;19907;-53
2023/03/26 12:52:20;;;;;;;;;;;20.30;81.70;;;;;;5119419;27;19908;-52
2023/03/26 12:54:50;;;;;;;;;;;20.30;81.70;;;;;;5136420;27;19935;-52
2023/03/26 12:57:19;;;;;;;;;;;20.30;81.70;;;;;;5118635;27;19916;-51
2023/03/26 12:59:56;;;;;;;;;;;20.20;81.70;;;;;;5138198;27;19930;-53
2023/03/26 13:02:31;;;;;;;;;;;20.20;81.80;;;;;;5136140;27;20352;-53
2023/03/26 13:05:07;;;;;;;;;;;20.10;82.10;;;;;;5117281;27;20056;-54
2023/03/26 13:07:33;;;;;;;;;;;20.00;82.20;;;;;;5133595;27;19922;-55
2023/03/26 13:10:09;;;;;;;;;;;19.90;82.30;;;;;;5134263;27;19911;-55
2023/03/26 13:12:35;;;;;;;;;;;19.80;81.20;;;;;;5134067;27;19923;-54
2023/03/26 13:15:20;;;;;;;;;;;19.80;82.50;;;;;;5137194;27;19918;-55
2023/03/26 13:17:48;;;;;;;;;;;19.70;82.80;;;;;;5137244;27;20388;-54
2023/03/26 13:20:33;;;;;;;;;;;19.70;82.90;;;;;;5136062;27;19935;-54
2023/03/26 13:22:59;;;;;;;;;;;19.60;82.90;;;;;;5137288;27;19908;-56
2023/03/26 13:25:35;;;;;;;;;;;19.60;83.00;;;;;;5136860;27;19914;-54
2023/03/26 13:28:10;;;;;;;;;;;19.60;83.00;;;;;;5137179;27;20001;-53
2023/03/26 13:30:42;;;;;;;;;;;19.70;82.80;;;;;;5135109;27;19934;-53
2023/03/26 13:33:25;;;;;;;;;;;19.80;82.50;;;;;;5124021;27;20270;-54
2023/03/26 13:36:07;;;;;;;;;;;20.00;82.30;;;;;;5136523;27;19919;-50
2023/03/26 13:38:32;;;;;;;;;;;20.10;81.80;;;;;;5137328;27;19912;-50
2023/03/26 13:41:06;;;;;;;;;;;20.30;81.50;;;;;;5143441;27;19919;-55
2023/03/26 13:43:50;;;;;;;;;;;20.30;81.80;;;;;;5141197;27;20414;-52
2023/03/26 13:46:34;;;;;;;;;;;20.30;81.20;;;;;;5134898;27;19918;-50
2023/03/26 13:49:14;;;;;;;;;;;20.30;81.30;;;;;;5126841;27;20285;-54
2023/03/26 13:51:52;;;;;;;;;;;20.30;81.50;;;;;;5115896;28;20378;-49
2023/03/26 13:54:36;;;;;;;;;;;20.20;81.70;;;;;;5119143;27;19911;-55
2023/03/26 13:57:15;;;;;;;;;;;20.10;82.00;;;;;;5127615;27;20289;-53
2023/03/26 13:59:49;;;;;;;;;;;20.00;82.20;;;;;;5135284;27;20356;-52
2023/03/26 14:02:24;;;;;;;;;;;19.90;82.40;;;;;;5119901;27;19919;-54
2023/03/26 14:04:52;;;;;;;;;;;19.80;82.70;;;;;;5124676;27;19969;-54
2023/03/26 14:07:23;;;;;;;;;;;19.80;82.90;;;;;;5133528;27;19998;-50
2023/03/26 14:09:55;;;;;;;;;;;19.70;83.00;;;;;;5136159;27;19912;-50
2023/03/26 14:12:27;;;;;;;;;;;19.70;83.30;;;;;;5136212;27;19911;-55
2023/03/26 14:15:03;;;;;;;;;;;19.70;83.50;;;;;;5134642;27;19972;-52
2023/03/26 14:17:46;;;;;;;;;;;19.60;83.50;;;;;;5123165;27;19911;-51
2023/03/26 14:20:18;;;;;;;;;;;19.70;83.60;;;;;;5136050;27;20006;-54
2023/03/26 14:22:59;;;;;;;;;;;19.70;83.40;;;;;;5136081;27;19912;-53
2023/03/26 14:25:25;;;;;;;;;;;19.80;83.30;;;;;;5131677;27;19949;-50
2023/03/26 14:28:04;;;;;;;;;;;19.90;82.90;;;;;;5131839;27;19951;-52
2023/03/26 14:30:33;;;;;;;;;;;20.10;82.60;;;;;;5134429;27;19915;-53
2023/03/26 14:33:10;;;;;;;;;;;20.20;82.20;;;;;;5134450;27;19915;-52
2023/03/26 14:35:40;;;;;;;;;;;20.30;82.00;;;;;;5135550;27;19912;-50